Moerbeke, Belgium
Current Conditions -  °F | °C
As of 3:50 PM on Friday 19 Dec 2014 (Local Time) from EBAW Reporting Station
Scattered Clouds Scattered Clouds  
Wind Chill: 43°   Ceiling: Unl
Heat Index: 48°   Visibility: 6mi
Dew Point: 39°   Wind: 14mph
Humidity: 71%   Direction: 300°WNW
Pressure: 29.97"   Gusts: NA
Location:  51.17°N, 3.93°E
Report Text: EBAW 191450Z 30012KT 9999 FEW039 SCT046 09/04 Q1015 NOSIG
Loading
Personal Weather Stations






























Interactive Weather Map New forecast layout! Learn more

10-Day Weather Forecast

Advertisements
Track Severe Weather on mobile